Time,TemperatureF,DewpointF,PressureIn,WindDirection,WindDirectionDegrees,WindSpeedMPH,WindSpeedGustMPH,Humidity,HourlyPrecipIn,Conditions,Clouds,dailyrainin,SolarRadiationWatts/m^2,SoftwareType,DateUTC
2013-01-20 00:32:00,14.0,12.0,-100.00,NNW,344,3.0,5.0,93,-99.99,,,0.00,0.000000,,2013-01-20 07:32:00,
2013-01-20 01:42:00,12.0,9.0,-100.00,East,98,1.0,6.0,88,-99.99,,,0.00,0.000000,,2013-01-20 08:42:00,
2013-01-20 01:52:00,12.0,9.0,-100.00,East,98,1.0,6.0,88,-99.99,,,0.00,0.000000,,2013-01-20 08:52:00,
2013-01-20 02:33:00,10.0,6.0,-100.00,North,8,2.0,4.0,85,-99.99,,,0.00,0.000000,,2013-01-20 09:33:00,
2013-01-20 03:33:00,9.0,6.0,-100.00,North,354,2.0,4.0,88,-99.99,,,0.00,0.000000,,2013-01-20 10:33:00,
2013-01-20 04:33:00,9.0,5.0,-100.00,East,80,1.0,3.0,85,-99.99,,,0.00,0.000000,,2013-01-20 11:33:00,
2013-01-20 05:33:00,6.0,2.0,-100.00,NE,37,1.0,4.0,84,-99.99,,,0.00,0.000000,,2013-01-20 12:33:00,
2013-01-20 06:33:00,6.0,2.0,-100.00,NE,55,1.0,4.0,83,-99.99,,,0.00,0.000000,,2013-01-20 13:33:00,
2013-01-20 07:43:00,3.0,-1.0,-100.00,NNE,33,1.0,2.0,83,-99.99,,,0.00,0.000000,,2013-01-20 14:43:00,
2013-01-20 07:53:00,3.0,-1.0,-100.00,NNE,33,1.0,2.0,83,-99.99,,,0.00,0.000000,,2013-01-20 14:53:00,
2013-01-20 08:43:00,2.0,-2.0,-100.00,SE,144,0.0,3.0,83,-99.99,,,0.00,0.000000,,2013-01-20 15:43:00,
2013-01-20 08:53:00,2.0,-2.0,-100.00,SE,144,0.0,3.0,83,-99.99,,,0.00,0.000000,,2013-01-20 15:53:00,
2013-01-20 09:33:00,6.0,2.0,-100.00,NNE,18,2.0,3.0,85,-99.99,,,0.00,21.000000,,2013-01-20 16:33:00,
2013-01-20 10:33:00,19.0,15.0,-100.00,ESE,122,1.0,2.0,83,-99.99,,,0.00,124.000000,,2013-01-20 17:33:00,
2013-01-20 10:43:00,19.0,15.0,-100.00,ESE,122,1.0,2.0,83,-99.99,,,0.00,124.000000,,2013-01-20 17:43:00,
2013-01-20 10:53:00,19.0,15.0,-100.00,ESE,122,1.0,2.0,83,-99.99,,,0.00,124.000000,,2013-01-20 17:53:00,
2013-01-20 11:02:00,19.0,15.0,-100.00,ESE,122,1.0,2.0,83,-99.99,,,0.00,124.000000,,2013-01-20 18:02:00,
2013-01-20 11:12:00,19.0,15.0,-100.00,ESE,122,1.0,2.0,83,-99.99,,,0.00,124.000000,,2013-01-20 18:12:00,
2013-01-20 11:43:00,25.0,21.0,-100.00,ENE,65,0.0,3.0,86,0.00,,,0.00,150.000000,,2013-01-20 18:43:00,
2013-01-20 11:53:00,25.0,21.0,-100.00,ENE,65,0.0,3.0,86,0.00,,,0.00,150.000000,,2013-01-20 18:53:00,
2013-01-20 12:02:00,25.0,21.0,-100.00,ENE,65,0.0,3.0,86,0.00,,,0.00,150.000000,,2013-01-20 19:02:00,
2013-01-20 12:12:00,25.0,21.0,-100.00,ENE,65,0.0,3.0,86,0.00,,,0.00,150.000000,,2013-01-20 19:12:00,
2013-01-20 12:33:00,29.0,22.0,-100.00,SSE,148,2.0,3.0,74,0.00,,,0.00,166.000000,,2013-01-20 19:33:00,
2013-01-20 12:43:00,29.0,22.0,-100.00,SSE,148,2.0,3.0,74,0.00,,,0.00,166.000000,,2013-01-20 19:43:00,
2013-01-20 12:53:00,29.0,22.0,-100.00,SSE,148,2.0,3.0,74,0.00,,,0.00,166.000000,,2013-01-20 19:53:00,
2013-01-20 13:02:00,29.0,22.0,-100.00,SSE,148,2.0,3.0,74,0.00,,,0.00,166.000000,,2013-01-20 20:02:00,
2013-01-20 13:12:00,29.0,22.0,-100.00,SSE,148,2.0,3.0,74,0.00,,,0.00,166.000000,,2013-01-20 20:12:00,
2013-01-20 13:42:00,31.0,20.0,-100.00,SE,142,2.0,4.0,64,0.00,,,0.00,165.000000,,2013-01-20 20:42:00,
2013-01-20 13:53:00,31.0,20.0,-100.00,SE,142,2.0,4.0,64,0.00,,,0.00,165.000000,,2013-01-20 20:53:00,
2013-01-20 14:03:00,31.0,20.0,-100.00,SE,142,2.0,4.0,64,0.00,,,0.00,165.000000,,2013-01-20 21:03:00,
2013-01-20 14:12:00,31.0,20.0,-100.00,SE,142,2.0,4.0,64,0.00,,,0.00,165.000000,,2013-01-20 21:12:00,
2013-01-20 14:33:00,37.0,20.0,-100.00,SSW,192,3.0,6.0,50,0.00,,,0.00,343.000000,,2013-01-20 21:33:00,
2013-01-20 14:43:00,37.0,20.0,-100.00,SSW,192,3.0,6.0,50,0.00,,,0.00,343.000000,,2013-01-20 21:43:00,
2013-01-20 14:53:00,37.0,20.0,-100.00,SSW,192,3.0,6.0,50,0.00,,,0.00,343.000000,,2013-01-20 21:53:00,
2013-01-20 15:03:00,37.0,20.0,-100.00,SSW,192,3.0,6.0,50,0.00,,,0.00,343.000000,,2013-01-20 22:03:00,
2013-01-20 15:12:00,37.0,20.0,-100.00,SSW,192,3.0,6.0,50,0.00,,,0.00,343.000000,,2013-01-20 22:12:00,
2013-01-20 15:33:00,35.0,18.0,-100.00,SSW,203,2.0,5.0,49,0.00,,,0.00,201.000000,,2013-01-20 22:33:00,
2013-01-20 15:43:00,35.0,18.0,-100.00,SSW,203,2.0,5.0,49,0.00,,,0.00,201.000000,,2013-01-20 22:43:00,
2013-01-20 15:53:00,35.0,18.0,-100.00,SSW,203,2.0,5.0,49,0.00,,,0.00,201.000000,,2013-01-20 22:53:00,
2013-01-20 16:03:00,35.0,18.0,-100.00,SSW,203,2.0,5.0,49,0.00,,,0.00,201.000000,,2013-01-20 23:03:00,
2013-01-20 16:12:00,35.0,18.0,-100.00,SSW,203,2.0,5.0,49,0.00,,,0.00,201.000000,,2013-01-20 23:12:00,
2013-01-20 16:33:00,36.0,20.0,-100.00,SSE,168,1.0,2.0,51,0.00,,,-99.99,95.000000,,2013-01-20 23:33:00,
2013-01-20 16:43:00,36.0,20.0,-100.00,SSE,168,1.0,2.0,51,0.00,,,-99.99,95.000000,,2013-01-20 23:43:00,
2013-01-20 16:53:00,36.0,20.0,-100.00,SSE,168,1.0,2.0,51,0.00,,,-99.99,95.000000,,2013-01-20 23:53:00,
2013-01-20 17:02:00,36.0,20.0,-100.00,SSE,168,1.0,2.0,51,0.00,,,-99.99,95.000000,,2013-01-21 00:02:00,
2013-01-20 17:12:00,36.0,20.0,-100.00,SSE,168,1.0,2.0,51,0.00,,,-99.99,95.000000,,2013-01-21 00:12:00,
2013-01-20 17:33:00,31.0,18.0,-100.00,South,182,2.0,4.0,58,0.00,,,0.00,75.000000,,2013-01-21 00:33:00,
2013-01-20 17:43:00,31.0,18.0,-100.00,South,182,2.0,4.0,58,0.00,,,0.00,75.000000,,2013-01-21 00:43:00,
2013-01-20 17:53:00,31.0,18.0,-100.00,South,182,2.0,4.0,58,0.00,,,0.00,75.000000,,2013-01-21 00:53:00,
2013-01-20 18:02:00,31.0,18.0,-100.00,South,182,2.0,4.0,58,0.00,,,0.00,75.000000,,2013-01-21 01:02:00,
2013-01-20 18:12:00,31.0,18.0,-100.00,South,182,2.0,4.0,58,0.00,,,0.00,75.000000,,2013-01-21 01:12:00,
2013-01-20 18:33:00,27.0,20.0,-100.00,East,99,0.0,3.0,74,0.00,,,0.00,4.000000,,2013-01-21 01:33:00,
2013-01-20 18:43:00,27.0,20.0,-100.00,East,99,0.0,3.0,74,0.00,,,0.00,4.000000,,2013-01-21 01:43:00,
2013-01-20 18:53:00,27.0,20.0,-100.00,East,99,0.0,3.0,74,0.00,,,0.00,4.000000,,2013-01-21 01:53:00,
2013-01-20 19:03:00,27.0,20.0,-100.00,East,99,0.0,3.0,74,0.00,,,0.00,4.000000,,2013-01-21 02:03:00,
2013-01-20 19:12:00,27.0,20.0,-100.00,East,99,0.0,3.0,74,0.00,,,0.00,4.000000,,2013-01-21 02:12:00,
2013-01-20 19:33:00,24.0,20.0,-100.00,ESE,104,0.0,3.0,84,0.00,,,0.00,0.000000,,2013-01-21 02:33:00,
2013-01-20 19:43:00,24.0,20.0,-100.00,ESE,104,0.0,3.0,84,0.00,,,0.00,0.000000,,2013-01-21 02:43:00,
2013-01-20 19:53:00,24.0,20.0,-100.00,ESE,104,0.0,3.0,84,0.00,,,0.00,0.000000,,2013-01-21 02:53:00,
2013-01-20 20:02:00,24.0,20.0,-100.00,ESE,104,0.0,3.0,84,0.00,,,0.00,0.000000,,2013-01-21 03:02:00,
2013-01-20 20:12:00,24.0,20.0,-100.00,ESE,104,0.0,3.0,84,0.00,,,0.00,0.000000,,2013-01-21 03:12:00,
2013-01-20 20:33:00,20.0,17.0,-100.00,NNE,31,1.0,2.0,89,0.00,,,0.00,0.000000,,2013-01-21 03:33:00,
2013-01-20 20:43:00,20.0,17.0,-100.00,NNE,31,1.0,2.0,89,0.00,,,0.00,0.000000,,2013-01-21 03:43:00,
2013-01-20 20:53:00,20.0,17.0,-100.00,NNE,31,1.0,2.0,89,0.00,,,0.00,0.000000,,2013-01-21 03:53:00,
2013-01-20 21:02:00,20.0,17.0,-100.00,NNE,31,1.0,2.0,89,0.00,,,0.00,0.000000,,2013-01-21 04:02:00,
2013-01-20 21:12:00,20.0,17.0,-100.00,NNE,31,1.0,2.0,89,0.00,,,0.00,0.000000,,2013-01-21 04:12:00,
2013-01-20 21:33:00,20.0,18.0,-100.00,East,80,0.0,3.0,92,0.00,,,0.00,0.000000,,2013-01-21 04:33:00,
2013-01-20 21:43:00,20.0,18.0,-100.00,East,80,0.0,3.0,92,0.00,,,0.00,0.000000,,2013-01-21 04:43:00,
2013-01-20 21:53:00,20.0,18.0,-100.00,East,80,0.0,3.0,92,0.00,,,0.00,0.000000,,2013-01-21 04:53:00,
2013-01-20 22:03:00,20.0,18.0,-100.00,East,80,0.0,3.0,92,0.00,,,0.00,0.000000,,2013-01-21 05:03:00,
2013-01-20 22:12:00,20.0,18.0,-100.00,East,80,0.0,3.0,92,0.00,,,0.00,0.000000,,2013-01-21 05:12:00,
2013-01-20 22:42:00,19.0,17.0,-100.00,NE,39,1.0,2.0,92,0.00,,,0.00,0.000000,,2013-01-21 05:42:00,
2013-01-20 22:53:00,19.0,17.0,-100.00,NE,39,1.0,2.0,92,0.00,,,0.00,0.000000,,2013-01-21 05:53:00,
2013-01-20 23:02:00,19.0,17.0,-100.00,NE,39,1.0,2.0,92,0.00,,,0.00,0.000000,,2013-01-21 06:02:00,
2013-01-20 23:12:00,19.0,17.0,-100.00,NE,39,1.0,2.0,92,0.00,,,0.00,0.000000,,2013-01-21 06:12:00,
2013-01-20 23:33:00,19.0,17.0,-100.00,East,87,1.0,4.0,90,0.00,,,0.00,0.000000,,2013-01-21 06:33:00,